sensor_id;sensor_type;location;lat;lon;timestamp;pressure;altitude;pressure_sealevel;temperature;humidity
61039;BME280;46919;45.816;3.104;2023-05-21T00:02:15;97469.69;;;14.22;100.00
61039;BME280;46919;45.816;3.104;2023-05-21T00:04:43;97470.97;;;14.14;100.00
61039;BME280;46919;45.816;3.104;2023-05-21T00:07:10;97473.09;;;14.07;100.00
61039;BME280;46919;45.816;3.104;2023-05-21T00:09:36;97470.28;;;14.02;100.00
61039;BME280;46919;45.816;3.104;2023-05-21T00:12:06;97470.00;;;13.98;100.00
61039;BME280;46919;45.816;3.104;2023-05-21T00:14:32;97476.50;;;13.97;100.00
61039;BME280;46919;45.816;3.104;2023-05-21T00:16:58;97462.31;;;13.90;100.00
61039;BME280;46919;45.816;3.104;2023-05-21T00:19:23;97452.78;;;13.87;100.00
61039;BME280;46919;45.816;3.104;2023-05-21T00:21:49;97452.72;;;13.82;100.00
61039;BME280;46919;45.816;3.104;2023-05-21T00:24:15;97451.66;;;13.83;100.00
61039;BME280;46919;45.816;3.104;2023-05-21T00:26:41;97450.56;;;13.84;100.00
61039;BME280;46919;45.816;3.104;2023-05-21T00:29:06;97446.22;;;13.83;100.00
61039;BME280;46919;45.816;3.104;2023-05-21T00:31:32;97447.03;;;13.84;100.00
61039;BME280;46919;45.816;3.104;2023-05-21T00:33:57;97438.34;;;13.82;100.00
61039;BME280;46919;45.816;3.104;2023-05-21T00:36:23;97439.16;;;13.82;100.00
61039;BME280;46919;45.816;3.104;2023-05-21T00:38:50;97444.59;;;13.82;100.00
61039;BME280;46919;45.816;3.104;2023-05-21T00:41:16;97437.50;;;13.81;100.00
61039;BME280;46919;45.816;3.104;2023-05-21T00:43:42;97438.59;;;13.80;100.00
61039;BME280;46919;45.816;3.104;2023-05-21T00:46:14;97438.34;;;13.82;100.00
61039;BME280;46919;45.816;3.104;2023-05-21T00:48:44;97440.22;;;13.81;100.00
61039;BME280;46919;45.816;3.104;2023-05-21T00:51:10;97438.00;;;13.78;100.00
61039;BME280;46919;45.816;3.104;2023-05-21T00:53:36;97434.75;;;13.76;100.00
61039;BME280;46919;45.816;3.104;2023-05-21T00:56:02;97427.66;;;13.75;100.00
61039;BME280;46919;45.816;3.104;2023-05-21T00:58:28;97421.41;;;13.74;100.00
61039;BME280;46919;45.816;3.104;2023-05-21T01:00:54;97434.50;;;13.77;100.00
61039;BME280;46919;45.816;3.104;2023-05-21T01:03:22;97428.28;;;13.82;100.00
61039;BME280;46919;45.816;3.104;2023-05-21T01:05:50;97429.44;;;13.86;100.00
61039;BME280;46919;45.816;3.104;2023-05-21T01:08:18;97429.44;;;13.86;100.00
61039;BME280;46919;45.816;3.104;2023-05-21T01:10:46;97428.53;;;13.81;100.00
61039;BME280;46919;45.816;3.104;2023-05-21T01:13:12;97428.50;;;13.75;100.00
61039;BME280;46919;45.816;3.104;2023-05-21T01:15:39;97426.03;;;13.74;100.00
61039;BME280;46919;45.816;3.104;2023-05-21T01:18:05;97426.59;;;13.76;100.00
61039;BME280;46919;45.816;3.104;2023-05-21T01:20:31;97437.47;;;13.76;100.00
61039;BME280;46919;45.816;3.104;2023-05-21T01:22:57;97431.47;;;13.74;100.00
61039;BME280;46919;45.816;3.104;2023-05-21T01:25:22;97430.38;;;13.75;100.00
61039;BME280;46919;45.816;3.104;2023-05-21T01:27:49;97429.00;;;13.72;100.00
61039;BME280;46919;45.816;3.104;2023-05-21T01:30:16;97432.28;;;13.74;100.00
61039;BME280;46919;45.816;3.104;2023-05-21T01:32:59;97429.28;;;13.71;100.00
61039;BME280;46919;45.816;3.104;2023-05-21T01:35:34;97425.41;;;13.67;100.00
61039;BME280;46919;45.816;3.104;2023-05-21T01:40:46;97430.34;;;13.70;100.00
61039;BME280;46919;45.816;3.104;2023-05-21T01:43:17;97428.13;;;13.67;100.00
61039;BME280;46919;45.816;3.104;2023-05-21T01:45:43;97424.84;;;13.65;100.00
61039;BME280;46919;45.816;3.104;2023-05-21T01:48:11;97420.25;;;13.65;100.00
61039;BME280;46919;45.816;3.104;2023-05-21T01:50:38;97416.72;;;13.65;100.00
61039;BME280;46919;45.816;3.104;2023-05-21T01:53:04;97416.75;;;13.70;100.00
61039;BME280;46919;45.816;3.104;2023-05-21T01:55:31;97418.66;;;13.69;100.00
61039;BME280;46919;45.816;3.104;2023-05-21T01:57:57;97420.56;;;13.69;100.00
61039;BME280;46919;45.816;3.104;2023-05-21T02:00:24;97422.22;;;13.75;100.00
61039;BME280;46919;45.816;3.104;2023-05-21T02:02:51;97419.84;;;13.79;100.00
61039;BME280;46919;45.816;3.104;2023-05-21T02:05:16;97413.03;;;13.76;100.00
61039;BME280;46919;45.816;3.104;2023-05-21T02:07:43;97418.97;;;13.73;100.00
61039;BME280;46919;45.816;3.104;2023-05-21T02:10:09;97416.81;;;13.75;100.00
61039;BME280;46919;45.816;3.104;2023-05-21T02:12:35;97423.59;;;13.72;100.00
61039;BME280;46919;45.816;3.104;2023-05-21T02:15:01;97416.81;;;13.75;100.00
61039;BME280;46919;45.816;3.104;2023-05-21T02:17:27;97409.19;;;13.72;100.00
61039;BME280;46919;45.816;3.104;2023-05-21T02:19:55;97417.34;;;13.72;100.00
61039;BME280;46919;45.816;3.104;2023-05-21T02:22:21;97411.91;;;13.72;100.00
61039;BME280;46919;45.816;3.104;2023-05-21T02:24:47;97422.78;;;13.72;100.00
61039;BME280;46919;45.816;3.104;2023-05-21T02:27:13;97412.69;;;13.67;100.00
61039;BME280;46919;45.816;3.104;2023-05-21T02:29:41;97419.19;;;13.66;100.00
61039;BME280;46919;45.816;3.104;2023-05-21T02:32:07;97417.78;;;13.64;100.00
61039;BME280;46919;45.816;3.104;2023-05-21T02:34:32;97416.97;;;13.63;100.00
61039;BME280;46919;45.816;3.104;2023-05-21T02:37:00;97414.75;;;13.60;100.00
61039;BME280;46919;45.816;3.104;2023-05-21T02:39:26;97418.81;;;13.57;100.00
61039;BME280;46919;45.816;3.104;2023-05-21T02:41:51;97412.81;;;13.55;100.00
61039;BME280;46919;45.816;3.104;2023-05-21T02:44:16;97421.47;;;13.52;100.00
61039;BME280;46919;45.816;3.104;2023-05-21T02:46:43;97416.00;;;13.47;100.00
61039;BME280;46919;45.816;3.104;2023-05-21T02:49:09;97418.19;;;13.50;100.00
61039;BME280;46919;45.816;3.104;2023-05-21T02:51:34;97420.59;;;13.47;100.00
61039;BME280;46919;45.816;3.104;2023-05-21T02:54:00;97416.50;;;13.44;100.00
61039;BME280;46919;45.816;3.104;2023-05-21T02:56:25;97410.34;;;13.32;100.00
61039;BME280;46919;45.816;3.104;2023-05-21T02:58:51;97409.25;;;13.28;100.00
61039;BME280;46919;45.816;3.104;2023-05-21T03:01:16;97404.81;;;13.21;100.00
61039;BME280;46919;45.816;3.104;2023-05-21T03:03:42;97414.53;;;13.17;100.00
61039;BME280;46919;45.816;3.104;2023-05-21T03:06:07;97408.00;;;13.13;100.00
61039;BME280;46919;45.816;3.104;2023-05-21T03:08:34;97406.28;;;13.07;100.00
61039;BME280;46919;45.816;3.104;2023-05-21T03:11:00;97410.63;;;13.08;100.00
61039;BME280;46919;45.816;3.104;2023-05-21T03:13:26;97408.28;;;12.95;100.00
61039;BME280;46919;45.816;3.104;2023-05-21T03:15:51;97413.56;;;12.84;100.00
61039;BME280;46919;45.816;3.104;2023-05-21T03:18:21;97410.81;;;12.79;100.00
61039;BME280;46919;45.816;3.104;2023-05-21T03:20:46;97406.97;;;12.75;100.00
61039;BME280;46919;45.816;3.104;2023-05-21T03:23:11;97418.56;;;12.71;100.00
61039;BME280;46919;45.816;3.104;2023-05-21T03:25:38;97425.34;;;12.73;100.00
61039;BME280;46919;45.816;3.104;2023-05-21T03:28:03;97426.50;;;12.77;100.00
61039;BME280;46919;45.816;3.104;2023-05-21T03:30:31;97435.16;;;12.74;100.00
61039;BME280;46919;45.816;3.104;2023-05-21T03:32:56;97427.19;;;12.67;100.00
61039;BME280;46919;45.816;3.104;2023-05-21T03:35:22;97429.16;;;12.72;100.00
61039;BME280;46919;45.816;3.104;2023-05-21T03:37:47;97422.03;;;12.66;100.00
61039;BME280;46919;45.816;3.104;2023-05-21T03:40:13;97417.59;;;12.60;100.00
61039;BME280;46919;45.816;3.104;2023-05-21T03:42:38;97426.78;;;12.59;100.00
61039;BME280;46919;45.816;3.104;2023-05-21T03:45:05;97427.03;;;12.57;100.00
61039;BME280;46919;45.816;3.104;2023-05-21T03:47:30;97431.97;;;12.60;100.00
61039;BME280;46919;45.816;3.104;2023-05-21T03:49:56;97429.06;;;12.67;100.00
61039;BME280;46919;45.816;3.104;2023-05-21T03:52:21;97428.31;;;12.72;100.00
61039;BME280;46919;45.816;3.104;2023-05-21T03:54:46;97444.34;;;12.73;100.00
61039;BME280;46919;45.816;3.104;2023-05-21T03:57:12;97448.03;;;12.67;100.00
61039;BME280;46919;45.816;3.104;2023-05-21T03:59:37;97452.59;;;12.61;100.00
61039;BME280;46919;45.816;3.104;2023-05-21T04:02:03;97455.22;;;12.56;100.00
61039;BME280;46919;45.816;3.104;2023-05-21T04:04:28;97458.09;;;12.49;100.00
61039;BME280;46919;45.816;3.104;2023-05-21T04:06:54;97461.03;;;12.48;100.00
61039;BME280;46919;45.816;3.104;2023-05-21T04:09:20;97457.53;;;12.47;100.00
61039;BME280;46919;45.816;3.104;2023-05-21T04:11:46;97442.31;;;12.46;100.00
61039;BME280;46919;45.816;3.104;2023-05-21T04:14:12;97442.81;;;12.43;100.00
61039;BME280;46919;45.816;3.104;2023-05-21T04:16:38;97438.97;;;12.39;100.00
61039;BME280;46919;45.816;3.104;2023-05-21T04:19:04;97441.63;;;12.34;100.00
61039;BME280;46919;45.816;3.104;2023-05-21T04:21:30;97443.22;;;12.35;100.00
61039;BME280;46919;45.816;3.104;2023-05-21T04:23:56;97453.09;;;12.41;100.00
61039;BME280;46919;45.816;3.104;2023-05-21T04:26:22;97450.94;;;12.43;100.00
61039;BME280;46919;45.816;3.104;2023-05-21T04:28:49;97458.50;;;12.41;100.00
61039;BME280;46919;45.816;3.104;2023-05-21T04:31:15;97454.19;;;12.40;100.00
61039;BME280;46919;45.816;3.104;2023-05-21T04:33:40;97454.06;;;12.52;100.00
61039;BME280;46919;45.816;3.104;2023-05-21T04:36:06;97460.91;;;12.55;100.00
61039;BME280;46919;45.816;3.104;2023-05-21T04:38:34;97469.47;;;12.68;100.00
61039;BME280;46919;45.816;3.104;2023-05-21T04:41:01;97472.03;;;12.75;100.00
61039;BME280;46919;45.816;3.104;2023-05-21T04:43:28;97474.81;;;12.80;100.00
61039;BME280;46919;45.816;3.104;2023-05-21T04:45:54;97475.94;;;12.84;100.00
61039;BME280;46919;45.816;3.104;2023-05-21T04:48:20;97470.63;;;12.90;100.00
61039;BME280;46919;45.816;3.104;2023-05-21T04:50:49;97463.34;;;12.95;100.00
61039;BME280;46919;45.816;3.104;2023-05-21T04:53:15;97467.78;;;13.01;100.00
61039;BME280;46919;45.816;3.104;2023-05-21T04:55:40;97461.59;;;13.06;100.00
61039;BME280;46919;45.816;3.104;2023-05-21T04:58:06;97468.25;;;13.15;100.00
61039;BME280;46919;45.816;3.104;2023-05-21T05:00:32;97469.06;;;13.16;100.00
61039;BME280;46919;45.816;3.104;2023-05-21T05:02:58;97462.00;;;13.15;100.00
61039;BME280;46919;45.816;3.104;2023-05-21T05:05:24;97464.78;;;13.20;100.00
61039;BME280;46919;45.816;3.104;2023-05-21T05:07:49;97465.09;;;13.23;100.00
61039;BME280;46919;45.816;3.104;2023-05-21T05:10:15;97461.38;;;13.30;100.00
61039;BME280;46919;45.816;3.104;2023-05-21T05:12:40;97465.72;;;13.31;100.00
61039;BME280;46919;45.816;3.104;2023-05-21T05:15:06;97465.72;;;13.31;100.00
61039;BME280;46919;45.816;3.104;2023-05-21T05:17:32;97471.97;;;13.31;100.00
61039;BME280;46919;45.816;3.104;2023-05-21T05:19:58;97467.97;;;13.34;100.00
61039;BME280;46919;45.816;3.104;2023-05-21T05:22:24;97462.91;;;13.43;100.00
61039;BME280;46919;45.816;3.104;2023-05-21T05:24:49;97473.56;;;13.49;100.00
61039;BME280;46919;45.816;3.104;2023-05-21T05:27:15;97464.41;;;13.55;100.00
61039;BME280;46919;45.816;3.104;2023-05-21T05:29:42;97457.06;;;13.56;100.00
61039;BME280;46919;45.816;3.104;2023-05-21T05:32:08;97460.91;;;13.60;100.00
61039;BME280;46919;45.816;3.104;2023-05-21T05:34:33;97454.94;;;13.58;100.00
61039;BME280;46919;45.816;3.104;2023-05-21T05:36:59;97461.19;;;13.58;100.00
61039;BME280;46919;45.816;3.104;2023-05-21T05:39:24;97459.00;;;13.61;100.00
61039;BME280;46919;45.816;3.104;2023-05-21T05:41:49;97462.31;;;13.63;100.00
61039;BME280;46919;45.816;3.104;2023-05-21T05:44:15;97458.00;;;13.67;100.00
61039;BME280;46919;45.816;3.104;2023-05-21T05:46:40;97456.94;;;13.68;100.00
61039;BME280;46919;45.816;3.104;2023-05-21T05:49:05;97456.22;;;13.77;100.00
61039;BME280;46919;45.816;3.104;2023-05-21T05:51:31;97459.50;;;13.80;100.00
61039;BME280;46919;45.816;3.104;2023-05-21T05:53:56;97453.25;;;13.79;100.00
61039;BME280;46919;45.816;3.104;2023-05-21T05:56:22;97457.16;;;13.88;100.00
61039;BME280;46919;45.816;3.104;2023-05-21T05:58:47;97459.09;;;13.93;100.00
61039;BME280;46919;45.816;3.104;2023-05-21T06:01:13;97461.50;;;13.89;100.00
61039;BME280;46919;45.816;3.104;2023-05-21T06:03:38;97464.78;;;13.91;100.00
61039;BME280;46919;45.816;3.104;2023-05-21T06:06:03;97459.09;;;13.93;100.00
61039;BME280;46919;45.816;3.104;2023-05-21T06:08:29;97468.41;;;14.02;100.00
61039;BME280;46919;45.816;3.104;2023-05-21T06:10:54;97473.09;;;14.07;100.00
61039;BME280;46919;45.816;3.104;2023-05-21T06:13:20;97466.84;;;14.11;100.00
61039;BME280;46919;45.816;3.104;2023-05-21T06:15:45;97467.19;;;14.15;100.00
61039;BME280;46919;45.816;3.104;2023-05-21T06:18:10;97471.00;;;14.19;100.00
61039;BME280;46919;45.816;3.104;2023-05-21T06:20:36;97468.25;;;14.14;100.00
61039;BME280;46919;45.816;3.104;2023-05-21T06:23:01;97466.66;;;14.18;100.00
61039;BME280;46919;45.816;3.104;2023-05-21T06:25:27;97473.25;;;14.27;100.00
61039;BME280;46919;45.816;3.104;2023-05-21T06:27:52;97468.94;;;14.31;100.00
61039;BME280;46919;45.816;3.104;2023-05-21T06:30:17;97471.94;;;14.35;100.00
61039;BME280;46919;45.816;3.104;2023-05-21T06:32:43;97467.38;;;14.41;100.00
61039;BME280;46919;45.816;3.104;2023-05-21T06:35:08;97474.81;;;14.56;100.00
61039;BME280;46919;45.816;3.104;2023-05-21T06:37:34;97470.88;;;14.68;100.00
61039;BME280;46919;45.816;3.104;2023-05-21T06:40:00;97467.41;;;14.78;100.00
61039;BME280;46919;45.816;3.104;2023-05-21T06:42:25;97477.00;;;14.91;100.00
61039;BME280;46919;45.816;3.104;2023-05-21T06:44:51;97473.78;;;14.99;100.00
61039;BME280;46919;45.816;3.104;2023-05-21T06:47:16;97468.91;;;15.07;100.00
61039;BME280;46919;45.816;3.104;2023-05-21T06:49:41;97464.09;;;15.24;100.00
61039;BME280;46919;45.816;3.104;2023-05-21T06:52:07;97475.06;;;15.34;100.00
61039;BME280;46919;45.816;3.104;2023-05-21T06:54:32;97476.47;;;15.47;100.00
61039;BME280;46919;45.816;3.104;2023-05-21T06:56:58;97486.03;;;15.55;100.00
61039;BME280;46919;45.816;3.104;2023-05-21T06:59:24;97486.03;;;15.65;100.00
61039;BME280;46919;45.816;3.104;2023-05-21T07:01:49;97480.09;;;15.73;100.00
61039;BME280;46919;45.816;3.104;2023-05-21T07:04:15;97477.41;;;15.79;100.00
61039;BME280;46919;45.816;3.104;2023-05-21T07:06:40;97482.56;;;15.75;100.00
61039;BME280;46919;45.816;3.104;2023-05-21T07:09:06;97477.41;;;15.79;100.00
61039;BME280;46919;45.816;3.104;2023-05-21T07:11:31;97477.41;;;15.79;100.00
61039;BME280;46919;45.816;3.104;2023-05-21T07:13:58;97480.97;;;15.89;100.00
61039;BME280;46919;45.816;3.104;2023-05-21T07:16:27;97474.72;;;15.94;100.00
61039;BME280;46919;45.816;3.104;2023-05-21T07:18:53;97479.34;;;15.93;100.00
61039;BME280;46919;45.816;3.104;2023-05-21T07:21:18;97481.78;;;15.90;100.00
61039;BME280;46919;45.816;3.104;2023-05-21T07:23:44;97470.34;;;15.93;100.00
61039;BME280;46919;45.816;3.104;2023-05-21T07:26:10;97483.44;;;16.06;100.00
61039;BME280;46919;45.816;3.104;2023-05-21T07:28:35;97481.84;;;16.05;100.00
61039;BME280;46919;45.816;3.104;2023-05-21T07:31:00;97485.09;;;16.12;100.00
61039;BME280;46919;45.816;3.104;2023-05-21T07:33:26;97484.56;;;16.21;100.00
61039;BME280;46919;45.816;3.104;2023-05-21T07:35:52;97492.50;;;16.27;100.00
61039;BME280;46919;45.816;3.104;2023-05-21T07:38:17;97496.56;;;16.25;100.00
61039;BME280;46919;45.816;3.104;2023-05-21T07:40:43;97493.03;;;16.24;100.00
61039;BME280;46919;45.816;3.104;2023-05-21T07:43:08;97480.50;;;16.39;100.00
61039;BME280;46919;45.816;3.104;2023-05-21T07:45:33;97483.78;;;16.51;100.00
61039;BME280;46919;45.816;3.104;2023-05-21T07:47:59;97488.94;;;16.73;100.00
61039;BME280;46919;45.816;3.104;2023-05-21T07:50:25;97487.81;;;16.74;100.00
61039;BME280;46919;45.816;3.104;2023-05-21T07:52:50;97485.38;;;16.78;100.00
61039;BME280;46919;45.816;3.104;2023-05-21T07:55:16;97489.75;;;16.74;100.00
61039;BME280;46919;45.816;3.104;2023-05-21T07:57:41;97489.47;;;16.80;100.00
61039;BME280;46919;45.816;3.104;2023-05-21T08:00:07;97481.28;;;16.75;100.00
61039;BME280;46919;45.816;3.104;2023-05-21T08:02:38;97494.41;;;16.73;100.00
61039;BME280;46919;45.816;3.104;2023-05-21T08:05:04;97483.19;;;16.80;100.00
61039;BME280;46919;45.816;3.104;2023-05-21T08:07:30;97482.34;;;16.79;100.00
61039;BME280;46919;45.816;3.104;2023-05-21T08:09:57;97479.63;;;16.79;100.00
61039;BME280;46919;45.816;3.104;2023-05-21T08:12:23;97484.03;;;16.86;99.74
61039;BME280;46919;45.816;3.104;2023-05-21T08:14:48;97489.19;;;16.87;98.16
61039;BME280;46919;45.816;3.104;2023-05-21T08:17:15;97483.47;;;16.78;96.85
61039;BME280;46919;45.816;3.104;2023-05-21T08:19:40;97482.38;;;16.90;97.60
61039;BME280;46919;45.816;3.104;2023-05-21T08:22:06;97495.47;;;16.98;97.38
61039;BME280;46919;45.816;3.104;2023-05-21T08:24:31;97490.00;;;16.98;96.72
61039;BME280;46919;45.816;3.104;2023-05-21T08:26:57;97484.81;;;17.01;96.13
61039;BME280;46919;45.816;3.104;2023-05-21T08:29:22;97495.75;;;16.91;96.30
61039;BME280;46919;45.816;3.104;2023-05-21T08:31:47;97486.47;;;16.97;96.38
61039;BME280;46919;45.816;3.104;2023-05-21T08:34:13;97492.75;;;16.93;96.47
61039;BME280;46919;45.816;3.104;2023-05-21T08:36:38;97490.56;;;16.90;95.61
61039;BME280;46919;45.816;3.104;2023-05-21T08:39:07;97493.84;;;16.92;95.13
61039;BME280;46919;45.816;3.104;2023-05-21T08:41:34;97500.38;;;16.75;94.23
61039;BME280;46919;45.816;3.104;2023-05-21T08:44:00;97499.28;;;16.81;94.69
61039;BME280;46919;45.816;3.104;2023-05-21T08:46:32;97493.56;;;16.83;94.09
61039;BME280;46919;45.816;3.104;2023-05-21T08:49:01;97500.13;;;16.87;93.02
61039;BME280;46919;45.816;3.104;2023-05-21T08:51:27;97497.41;;;16.92;92.33
61039;BME280;46919;45.816;3.104;2023-05-21T08:53:54;97494.91;;;17.01;92.13
61039;BME280;46919;45.816;3.104;2023-05-21T08:56:21;97501.19;;;17.07;91.54
61039;BME280;46919;45.816;3.104;2023-05-21T08:58:47;97509.31;;;17.22;91.19
61039;BME280;46919;45.816;3.104;2023-05-21T09:01:13;97495.41;;;17.29;90.68
61039;BME280;46919;45.816;3.104;2023-05-21T09:03:39;97504.34;;;17.39;90.85
61039;BME280;46919;45.816;3.104;2023-05-21T09:06:09;97494.81;;;17.37;89.95
61039;BME280;46919;45.816;3.104;2023-05-21T09:08:37;97499.16;;;17.48;91.06
61039;BME280;46919;45.816;3.104;2023-05-21T09:11:04;97504.00;;;17.67;91.19
61039;BME280;46919;45.816;3.104;2023-05-21T09:13:30;97499.00;;;17.79;89.38
61039;BME280;46919;45.816;3.104;2023-05-21T09:15:57;97503.91;;;17.82;89.62
61039;BME280;46919;45.816;3.104;2023-05-21T09:18:23;97497.88;;;17.85;89.39
61039;BME280;46919;45.816;3.104;2023-05-21T09:20:48;97496.53;;;17.88;87.99
61039;BME280;46919;45.816;3.104;2023-05-21T09:23:16;97504.47;;;17.89;87.97
61039;BME280;46919;45.816;3.104;2023-05-21T09:25:47;97502.25;;;17.91;87.41
61039;BME280;46919;45.816;3.104;2023-05-21T09:28:14;97507.69;;;17.97;86.12
61039;BME280;46919;45.816;3.104;2023-05-21T09:30:46;97505.19;;;18.05;85.95
61039;BME280;46919;45.816;3.104;2023-05-21T09:33:12;97504.06;;;18.12;85.02
61039;BME280;46919;45.816;3.104;2023-05-21T09:35:49;97502.59;;;18.24;85.39
61039;BME280;46919;45.816;3.104;2023-05-21T09:38:15;97504.59;;;18.14;84.88
61039;BME280;46919;45.816;3.104;2023-05-21T09:40:44;97500.47;;;18.11;84.74
61039;BME280;46919;45.816;3.104;2023-05-21T09:43:13;97498.59;;;18.06;84.18
61039;BME280;46919;45.816;3.104;2023-05-21T09:45:52;97491.16;;;18.17;85.57
61039;BME280;46919;45.816;3.104;2023-05-21T09:48:38;97500.09;;;18.28;84.57
61039;BME280;46919;45.816;3.104;2023-05-21T09:51:25;97492.56;;;18.49;84.41
61039;BME280;46919;45.816;3.104;2023-05-21T09:53:53;97493.78;;;18.67;82.27
61039;BME280;46919;45.816;3.104;2023-05-21T09:56:20;97495.13;;;18.70;81.75
61039;BME280;46919;45.816;3.104;2023-05-21T09:58:58;97486.91;;;18.70;81.44
61039;BME280;46919;45.816;3.104;2023-05-21T10:01:25;97489.53;;;18.85;82.15
61039;BME280;46919;45.816;3.104;2023-05-21T10:03:55;97489.63;;;19.04;81.41
61039;BME280;46919;45.816;3.104;2023-05-21T10:06:23;97488.75;;;19.09;80.79
61039;BME280;46919;45.816;3.104;2023-05-21T10:08:52;97496.53;;;19.26;81.77
61039;BME280;46919;45.816;3.104;2023-05-21T10:11:18;97495.00;;;19.39;80.08
61039;BME280;46919;45.816;3.104;2023-05-21T10:13:47;97490.22;;;19.25;79.93
61039;BME280;46919;45.816;3.104;2023-05-21T10:16:16;97494.09;;;19.24;79.84
61039;BME280;46919;45.816;3.104;2023-05-21T10:18:42;97487.81;;;19.43;78.76
61039;BME280;46919;45.816;3.104;2023-05-21T10:21:10;97484.47;;;19.51;78.80
61039;BME280;46919;45.816;3.104;2023-05-21T10:23:36;97494.00;;;19.53;79.65
61039;BME280;46919;45.816;3.104;2023-05-21T10:26:03;97493.50;;;19.51;79.65
61039;BME280;46919;45.816;3.104;2023-05-21T10:28:30;97494.28;;;19.52;77.91
61039;BME280;46919;45.816;3.104;2023-05-21T10:30:57;97494.69;;;19.64;77.29
61039;BME280;46919;45.816;3.104;2023-05-21T10:33:24;97497.91;;;19.71;76.88
61039;BME280;46919;45.816;3.104;2023-05-21T10:35:50;97488.44;;;19.59;75.78
61039;BME280;46919;45.816;3.104;2023-05-21T10:38:17;97484.25;;;19.66;75.69
61039;BME280;46919;45.816;3.104;2023-05-21T10:40:47;97484.84;;;19.87;74.83
61039;BME280;46919;45.816;3.104;2023-05-21T10:43:29;97487.81;;;20.10;74.42
61039;BME280;46919;45.816;3.104;2023-05-21T10:55:28;97480.66;;;20.28;72.40
61039;BME280;46919;45.816;3.104;2023-05-21T11:00:25;97482.41;;;20.24;73.49
61039;BME280;46919;45.816;3.104;2023-05-21T11:02:51;97478.19;;;20.45;73.33
61039;BME280;46919;45.816;3.104;2023-05-21T11:05:50;97479.88;;;20.60;71.82
61039;BME280;46919;45.816;3.104;2023-05-21T11:10:54;97478.09;;;20.51;70.42
61039;BME280;46919;45.816;3.104;2023-05-21T11:13:20;97476.13;;;20.37;71.46
61039;BME280;46919;45.816;3.104;2023-05-21T11:21:07;97479.22;;;20.69;70.17
61039;BME280;46919;45.816;3.104;2023-05-21T11:26:22;97481.81;;;20.27;71.38
61039;BME280;46919;45.816;3.104;2023-05-21T11:31:28;97474.34;;;20.47;70.35
61039;BME280;46919;45.816;3.104;2023-05-21T11:34:13;97475.34;;;20.51;70.76
61039;BME280;46919;45.816;3.104;2023-05-21T11:36:40;97478.84;;;20.56;70.14
61039;BME280;46919;45.816;3.104;2023-05-21T11:44:36;97479.84;;;20.47;69.74
61039;BME280;46919;45.816;3.104;2023-05-21T11:47:03;97481.81;;;20.60;69.92
61039;BME280;46919;45.816;3.104;2023-05-21T11:49:30;97480.69;;;20.61;69.99
61039;BME280;46919;45.816;3.104;2023-05-21T11:51:55;97483.53;;;20.56;71.35
61039;BME280;46919;45.816;3.104;2023-05-21T11:54:22;97482.56;;;20.47;71.13
61039;BME280;46919;45.816;3.104;2023-05-21T11:56:48;97489.84;;;20.37;70.72
61039;BME280;46919;45.816;3.104;2023-05-21T11:59:14;97489.44;;;20.30;72.13
61039;BME280;46919;45.816;3.104;2023-05-21T12:01:42;97490.09;;;20.22;72.08
61039;BME280;46919;45.816;3.104;2023-05-21T12:04:10;97491.34;;;20.30;72.01
61039;BME280;46919;45.816;3.104;2023-05-21T12:06:37;97497.44;;;20.26;72.02
61039;BME280;46919;45.816;3.104;2023-05-21T12:09:07;97490.53;;;20.29;72.28
61039;BME280;46919;45.816;3.104;2023-05-21T12:11:34;97491.44;;;20.24;70.96
61039;BME280;46919;45.816;3.104;2023-05-21T12:14:00;97490.91;;;20.22;70.63
61039;BME280;46919;45.816;3.104;2023-05-21T12:16:26;97488.97;;;20.23;69.98
61039;BME280;46919;45.816;3.104;2023-05-21T12:18:53;97487.78;;;20.29;71.67
61039;BME280;46919;45.816;3.104;2023-05-21T12:21:18;97487.63;;;20.39;70.88
61039;BME280;46919;45.816;3.104;2023-05-21T12:23:44;97491.25;;;20.35;70.71
61039;BME280;46919;45.816;3.104;2023-05-21T12:26:09;97487.56;;;20.44;70.23
61039;BME280;46919;45.816;3.104;2023-05-21T12:28:35;97480.63;;;20.47;70.50
61039;BME280;46919;45.816;3.104;2023-05-21T12:31:00;97479.34;;;20.58;70.57
61039;BME280;46919;45.816;3.104;2023-05-21T12:33:33;97482.28;;;20.67;70.43
61039;BME280;46919;45.816;3.104;2023-05-21T12:35:58;97480.69;;;20.61;69.66
61039;BME280;46919;45.816;3.104;2023-05-21T12:38:29;97481.78;;;20.65;69.73
61039;BME280;46919;45.816;3.104;2023-05-21T12:40:55;97474.53;;;20.69;69.22
61039;BME280;46919;45.816;3.104;2023-05-21T12:43:20;97478.84;;;20.75;69.07
61039;BME280;46919;45.816;3.104;2023-05-21T12:45:46;97484.78;;;20.63;69.21
61039;BME280;46919;45.816;3.104;2023-05-21T12:48:11;97489.47;;;20.44;69.19
61039;BME280;46919;45.816;3.104;2023-05-21T12:50:41;97488.97;;;20.42;69.71
61039;BME280;46919;45.816;3.104;2023-05-21T12:53:08;97483.78;;;20.40;70.08
61039;BME280;46919;45.816;3.104;2023-05-21T12:55:35;97481.03;;;20.40;70.37
61039;BME280;46919;45.816;3.104;2023-05-21T12:58:04;97491.41;;;20.43;69.99
61039;BME280;46919;45.816;3.104;2023-05-21T13:00:32;97488.00;;;20.33;70.31
61039;BME280;46919;45.816;3.104;2023-05-21T13:02:57;97486.69;;;20.30;70.74
61039;BME280;46919;45.816;3.104;2023-05-21T13:05:25;97484.47;;;20.32;69.75
61039;BME280;46919;45.816;3.104;2023-05-21T13:07:50;97491.94;;;20.26;70.15
61039;BME280;46919;45.816;3.104;2023-05-21T13:10:16;97498.25;;;20.27;70.98
61039;BME280;46919;45.816;3.104;2023-05-21T13:12:42;97489.38;;;20.16;71.05
61039;BME280;46919;45.816;3.104;2023-05-21T13:15:08;97489.44;;;20.11;71.27
61039;BME280;46919;45.816;3.104;2023-05-21T13:17:34;97487.63;;;20.01;71.46
61039;BME280;46919;45.816;3.104;2023-05-21T13:20:10;97488.00;;;19.95;71.49
61039;BME280;46919;45.816;3.104;2023-05-21T13:22:44;97496.63;;;19.88;71.70
61039;BME280;46919;45.816;3.104;2023-05-21T13:25:11;97496.84;;;19.67;71.45